This is the latest recevied weather packets stored in our database for station/object WW5JC. If no packets are shown the sender has not sent any weather packets the latest 10 day(s).
| Time | Temp. | Humidity | Pressure | Rain* | Wind** | Luminosity | Snow |
|---|---|---|---|---|---|---|---|
| 1787868577 | 35.56° C | 42% | 1015.8 hPa | 0 mm | - | 319 W/m² | - |
| 1787868277 | 35.56° C | 42% | 1016 hPa | 0 mm | - | 269 W/m² | - |
| 1787867972 | 35.56° C | 43% | 1015.8 hPa | 0 mm | - | 282 W/m² | - |
| 1787867662 | 35.56° C | 43% | 1015.9 hPa | 0 mm | - | 321 W/m² | - |
| 1787867361 | 35° C | 44% | 1015.9 hPa | 0 mm | - | 351 W/m² | - |
| 1787867058 | 35.56° C | 44% | 1015.9 hPa | 0 mm | - | 217 W/m² | - |
| 1787866753 | 35.56° C | 44% | 1016.2 hPa | 0 mm | - | 285 W/m² | - |
| 1787866452 | 35° C | 45% | 1016.1 hPa | 0 mm | - | 171 W/m² | - |
| 1787866151 | 35.56° C | 44% | 1015.9 hPa | 0 mm | - | 157 W/m² | - |
| 1787865846 | 35.56° C | 44% | 1016.1 hPa | 0 mm | - | 167 W/m² | - |
| 1787865542 | 36.11° C | 43% | 1016.2 hPa | 0 mm | - | 191 W/m² | - |
| 1787865236 | 36.11° C | 42% | 1016.1 hPa | 0 mm | - | 526 W/m² | - |
| 1787864932 | 35° C | 44% | 1016.3 hPa | 0 mm | - | 413 W/m² | - |
| 1787864628 | 35.56° C | 44% | 1016.2 hPa | 0 mm | - | 253 W/m² | - |
| 1787864321 | 35.56° C | 43% | 1016.5 hPa | 0 mm | - | 457 W/m² | - |
| 1787864016 | 36.11° C | 43% | 1016.4 hPa | 0 mm | - | 415 W/m² | - |
| 1787863715 | 35.56° C | 44% | 1016.5 hPa | 0 mm | - | 543 W/m² | - |
| 1787863409 | 36.11° C | 44% | 1016.5 hPa | 0 mm | - | 372 W/m² | - |
| 1787863105 | 36.11° C | 40% | 1016.7 hPa | 0 mm | - | 543 W/m² | - |
| 1787862801 | 36.11° C | 40% | 1016.6 hPa | 0 mm | - | 499 W/m² | - |
| 1787862500 | 36.11° C | 38% | 1016.9 hPa | 0 mm | - | 426 W/m² | - |
| 1787862195 | 36.67° C | 37% | 1016.7 hPa | 0 mm | - | 593 W/m² | - |
| 1787861890 | 36.11° C | 37% | 1017.1 hPa | 0 mm | - | 559 W/m² | - |
| 1787861589 | 36.67° C | 38% | 1016.8 hPa | 0 mm | - | 570 W/m² | - |
| 1787861288 | 36.11° C | 37% | 1017.1 hPa | 0 mm | - | 606 W/m² | - |
* Rain latest hour (hover to see other rain measurements)
** Current wind speed in m/s (hover to see current wind gust speed)